sensor_id;sensor_type;location;lat;lon;timestamp;P1;durP1;ratioP1;P2;durP2;ratioP2
43678;SDS011;29279;50.858;4.392;2022-11-23T00:01:34;19.85;;;2.63;;
43678;SDS011;29279;50.858;4.392;2022-11-23T00:04:02;17.73;;;3.13;;
43678;SDS011;29279;50.858;4.392;2022-11-23T00:06:32;12.85;;;2.97;;
43678;SDS011;29279;50.858;4.392;2022-11-23T00:08:58;17.88;;;2.67;;
43678;SDS011;29279;50.858;4.392;2022-11-23T00:11:25;16.63;;;2.65;;
43678;SDS011;29279;50.858;4.392;2022-11-23T00:13:52;22.70;;;3.17;;
43678;SDS011;29279;50.858;4.392;2022-11-23T00:16:19;21.60;;;3.20;;
43678;SDS011;29279;50.858;4.392;2022-11-23T00:18:47;18.77;;;2.75;;
43678;SDS011;29279;50.858;4.392;2022-11-23T00:21:16;15.65;;;2.85;;
43678;SDS011;29279;50.858;4.392;2022-11-23T00:23:43;16.75;;;3.05;;
43678;SDS011;29279;50.858;4.392;2022-11-23T00:26:09;18.13;;;2.65;;
43678;SDS011;29279;50.858;4.392;2022-11-23T00:28:35;21.88;;;2.95;;
43678;SDS011;29279;50.858;4.392;2022-11-23T00:31:04;18.88;;;2.58;;
43678;SDS011;29279;50.858;4.392;2022-11-23T00:33:31;19.17;;;2.97;;
43678;SDS011;29279;50.858;4.392;2022-11-23T00:36:00;22.67;;;2.90;;
43678;SDS011;29279;50.858;4.392;2022-11-23T00:38:29;19.30;;;2.80;;
43678;SDS011;29279;50.858;4.392;2022-11-23T00:40:59;15.30;;;2.63;;
43678;SDS011;29279;50.858;4.392;2022-11-23T00:43:27;21.48;;;3.75;;
43678;SDS011;29279;50.858;4.392;2022-11-23T00:48:37;16.00;;;2.70;;
43678;SDS011;29279;50.858;4.392;2022-11-23T00:51:04;13.50;;;2.85;;
43678;SDS011;29279;50.858;4.392;2022-11-23T00:53:34;16.55;;;3.35;;
43678;SDS011;29279;50.858;4.392;2022-11-23T00:56:00;23.48;;;3.08;;
43678;SDS011;29279;50.858;4.392;2022-11-23T00:58:26;21.63;;;3.00;;
43678;SDS011;29279;50.858;4.392;2022-11-23T01:03:50;12.52;;;2.58;;
43678;SDS011;29279;50.858;4.392;2022-11-23T01:06:22;17.10;;;2.55;;
43678;SDS011;29279;50.858;4.392;2022-11-23T01:08:50;23.55;;;3.08;;
43678;SDS011;29279;50.858;4.392;2022-11-23T01:11:18;28.83;;;3.25;;
43678;SDS011;29279;50.858;4.392;2022-11-23T01:13:44;14.63;;;2.47;;
43678;SDS011;29279;50.858;4.392;2022-11-23T01:16:17;17.48;;;3.13;;
43678;SDS011;29279;50.858;4.392;2022-11-23T01:18:45;22.45;;;2.67;;
43678;SDS011;29279;50.858;4.392;2022-11-23T01:21:11;19.88;;;2.92;;
43678;SDS011;29279;50.858;4.392;2022-11-23T01:23:37;19.55;;;2.85;;
43678;SDS011;29279;50.858;4.392;2022-11-23T01:26:03;17.65;;;2.75;;
43678;SDS011;29279;50.858;4.392;2022-11-23T01:28:34;18.50;;;3.17;;
43678;SDS011;29279;50.858;4.392;2022-11-23T01:31:19;24.88;;;3.15;;
43678;SDS011;29279;50.858;4.392;2022-11-23T01:33:47;18.50;;;3.17;;
43678;SDS011;29279;50.858;4.392;2022-11-23T01:36:17;20.17;;;2.47;;
43678;SDS011;29279;50.858;4.392;2022-11-23T01:38:45;20.45;;;2.75;;
43678;SDS011;29279;50.858;4.392;2022-11-23T01:41:16;17.08;;;2.25;;
43678;SDS011;29279;50.858;4.392;2022-11-23T01:43:43;21.27;;;3.33;;
43678;SDS011;29279;50.858;4.392;2022-11-23T01:46:09;22.73;;;2.97;;
43678;SDS011;29279;50.858;4.392;2022-11-23T01:49:00;15.38;;;2.42;;
43678;SDS011;29279;50.858;4.392;2022-11-23T01:51:42;16.45;;;3.03;;
43678;SDS011;29279;50.858;4.392;2022-11-23T01:54:11;20.13;;;3.08;;
43678;SDS011;29279;50.858;4.392;2022-11-23T01:56:45;17.50;;;3.15;;
43678;SDS011;29279;50.858;4.392;2022-11-23T01:59:14;13.25;;;2.80;;
43678;SDS011;29279;50.858;4.392;2022-11-23T02:01:41;23.58;;;3.20;;
43678;SDS011;29279;50.858;4.392;2022-11-23T02:04:08;17.50;;;3.08;;
43678;SDS011;29279;50.858;4.392;2022-11-23T02:06:48;25.30;;;3.92;;
43678;SDS011;29279;50.858;4.392;2022-11-23T02:09:16;21.63;;;2.95;;
43678;SDS011;29279;50.858;4.392;2022-11-23T02:11:42;18.67;;;3.50;;
43678;SDS011;29279;50.858;4.392;2022-11-23T02:14:08;16.95;;;3.22;;
43678;SDS011;29279;50.858;4.392;2022-11-23T02:16:35;18.98;;;3.53;;
43678;SDS011;29279;50.858;4.392;2022-11-23T02:19:02;19.35;;;3.00;;
43678;SDS011;29279;50.858;4.392;2022-11-23T02:21:31;16.70;;;2.92;;
43678;SDS011;29279;50.858;4.392;2022-11-23T02:26:31;23.00;;;3.65;;
43678;SDS011;29279;50.858;4.392;2022-11-23T02:29:00;21.80;;;3.55;;
43678;SDS011;29279;50.858;4.392;2022-11-23T02:31:29;30.83;;;3.97;;
43678;SDS011;29279;50.858;4.392;2022-11-23T02:33:54;18.42;;;2.97;;
43678;SDS011;29279;50.858;4.392;2022-11-23T02:36:40;21.20;;;3.95;;
43678;SDS011;29279;50.858;4.392;2022-11-23T02:39:10;25.20;;;3.67;;
43678;SDS011;29279;50.858;4.392;2022-11-23T02:41:55;31.70;;;4.43;;
43678;SDS011;29279;50.858;4.392;2022-11-23T02:46:56;24.15;;;3.75;;
43678;SDS011;29279;50.858;4.392;2022-11-23T02:49:22;30.27;;;4.97;;
43678;SDS011;29279;50.858;4.392;2022-11-23T02:51:48;22.65;;;4.82;;
43678;SDS011;29279;50.858;4.392;2022-11-23T02:54:14;25.63;;;4.38;;
43678;SDS011;29279;50.858;4.392;2022-11-23T02:56:40;20.67;;;4.55;;
43678;SDS011;29279;50.858;4.392;2022-11-23T02:59:05;22.30;;;4.05;;
43678;SDS011;29279;50.858;4.392;2022-11-23T03:01:31;23.65;;;4.05;;
43678;SDS011;29279;50.858;4.392;2022-11-23T03:03:57;30.10;;;4.68;;
43678;SDS011;29279;50.858;4.392;2022-11-23T03:06:23;27.65;;;5.03;;
43678;SDS011;29279;50.858;4.392;2022-11-23T03:08:48;23.80;;;4.15;;
43678;SDS011;29279;50.858;4.392;2022-11-23T03:11:14;23.42;;;3.88;;
43678;SDS011;29279;50.858;4.392;2022-11-23T03:13:40;25.13;;;3.90;;
43678;SDS011;29279;50.858;4.392;2022-11-23T03:16:06;23.48;;;3.90;;
43678;SDS011;29279;50.858;4.392;2022-11-23T03:18:32;22.55;;;2.95;;
43678;SDS011;29279;50.858;4.392;2022-11-23T03:21:01;21.25;;;3.78;;
43678;SDS011;29279;50.858;4.392;2022-11-23T03:23:28;23.40;;;3.22;;
43678;SDS011;29279;50.858;4.392;2022-11-23T03:25:57;19.63;;;2.78;;
43678;SDS011;29279;50.858;4.392;2022-11-23T03:28:23;24.08;;;3.05;;
43678;SDS011;29279;50.858;4.392;2022-11-23T03:30:49;18.40;;;2.95;;
43678;SDS011;29279;50.858;4.392;2022-11-23T03:33:15;25.58;;;3.00;;
43678;SDS011;29279;50.858;4.392;2022-11-23T03:35:41;15.95;;;2.95;;
43678;SDS011;29279;50.858;4.392;2022-11-23T03:38:07;25.80;;;3.47;;
43678;SDS011;29279;50.858;4.392;2022-11-23T03:40:33;23.42;;;3.00;;
43678;SDS011;29279;50.858;4.392;2022-11-23T03:42:59;28.15;;;3.72;;
43678;SDS011;29279;50.858;4.392;2022-11-23T03:45:24;20.05;;;2.78;;
43678;SDS011;29279;50.858;4.392;2022-11-23T03:47:50;25.67;;;3.63;;
43678;SDS011;29279;50.858;4.392;2022-11-23T03:50:16;25.90;;;4.20;;
43678;SDS011;29279;50.858;4.392;2022-11-23T03:52:41;19.75;;;3.85;;
43678;SDS011;29279;50.858;4.392;2022-11-23T03:55:07;23.00;;;3.30;;
43678;SDS011;29279;50.858;4.392;2022-11-23T03:57:33;19.23;;;3.60;;
43678;SDS011;29279;50.858;4.392;2022-11-23T03:59:59;26.23;;;3.35;;
43678;SDS011;29279;50.858;4.392;2022-11-23T04:02:24;21.17;;;3.42;;
43678;SDS011;29279;50.858;4.392;2022-11-23T04:04:50;19.88;;;3.15;;
43678;SDS011;29279;50.858;4.392;2022-11-23T04:07:15;29.40;;;3.92;;
43678;SDS011;29279;50.858;4.392;2022-11-23T04:09:41;27.10;;;4.60;;
43678;SDS011;29279;50.858;4.392;2022-11-23T04:12:08;21.30;;;3.38;;
43678;SDS011;29279;50.858;4.392;2022-11-23T04:14:34;26.38;;;4.40;;
43678;SDS011;29279;50.858;4.392;2022-11-23T04:16:59;17.63;;;3.10;;
43678;SDS011;29279;50.858;4.392;2022-11-23T04:19:26;35.42;;;3.65;;
43678;SDS011;29279;50.858;4.392;2022-11-23T04:21:52;24.75;;;4.20;;
43678;SDS011;29279;50.858;4.392;2022-11-23T04:24:18;28.20;;;3.95;;
43678;SDS011;29279;50.858;4.392;2022-11-23T04:26:44;28.27;;;4.25;;
43678;SDS011;29279;50.858;4.392;2022-11-23T04:29:10;24.73;;;3.85;;
43678;SDS011;29279;50.858;4.392;2022-11-23T04:31:35;30.42;;;3.90;;
43678;SDS011;29279;50.858;4.392;2022-11-23T04:34:01;27.38;;;3.95;;
43678;SDS011;29279;50.858;4.392;2022-11-23T04:36:27;20.88;;;3.45;;
43678;SDS011;29279;50.858;4.392;2022-11-23T04:38:52;28.63;;;3.65;;
43678;SDS011;29279;50.858;4.392;2022-11-23T04:41:18;15.15;;;3.85;;
43678;SDS011;29279;50.858;4.392;2022-11-23T04:43:46;32.90;;;4.07;;
43678;SDS011;29279;50.858;4.392;2022-11-23T04:46:12;20.13;;;3.22;;
43678;SDS011;29279;50.858;4.392;2022-11-23T04:48:38;29.55;;;3.00;;
43678;SDS011;29279;50.858;4.392;2022-11-23T04:51:03;28.60;;;3.88;;
43678;SDS011;29279;50.858;4.392;2022-11-23T04:53:29;23.27;;;4.30;;
43678;SDS011;29279;50.858;4.392;2022-11-23T04:55:55;25.98;;;3.97;;
43678;SDS011;29279;50.858;4.392;2022-11-23T04:58:20;20.73;;;3.30;;
43678;SDS011;29279;50.858;4.392;2022-11-23T05:00:46;21.65;;;3.30;;
43678;SDS011;29279;50.858;4.392;2022-11-23T05:03:11;20.92;;;2.95;;
43678;SDS011;29279;50.858;4.392;2022-11-23T05:05:37;23.30;;;3.42;;
43678;SDS011;29279;50.858;4.392;2022-11-23T05:08:04;25.63;;;3.83;;
43678;SDS011;29279;50.858;4.392;2022-11-23T05:10:30;20.27;;;3.67;;
43678;SDS011;29279;50.858;4.392;2022-11-23T05:12:56;19.27;;;3.92;;
43678;SDS011;29279;50.858;4.392;2022-11-23T05:15:21;23.27;;;3.33;;
43678;SDS011;29279;50.858;4.392;2022-11-23T05:17:47;27.63;;;3.80;;
43678;SDS011;29279;50.858;4.392;2022-11-23T05:20:13;23.25;;;3.45;;
43678;SDS011;29279;50.858;4.392;2022-11-23T05:22:39;21.88;;;4.75;;
43678;SDS011;29279;50.858;4.392;2022-11-23T05:25:04;25.10;;;4.10;;
43678;SDS011;29279;50.858;4.392;2022-11-23T05:27:30;24.35;;;3.00;;
43678;SDS011;29279;50.858;4.392;2022-11-23T05:29:56;27.20;;;4.28;;
43678;SDS011;29279;50.858;4.392;2022-11-23T05:32:22;19.15;;;3.47;;
43678;SDS011;29279;50.858;4.392;2022-11-23T05:34:48;23.15;;;3.63;;
43678;SDS011;29279;50.858;4.392;2022-11-23T05:37:14;19.05;;;3.80;;
43678;SDS011;29279;50.858;4.392;2022-11-23T05:39:39;24.83;;;3.95;;
43678;SDS011;29279;50.858;4.392;2022-11-23T05:42:05;24.85;;;2.72;;
43678;SDS011;29279;50.858;4.392;2022-11-23T05:44:31;23.38;;;3.63;;
43678;SDS011;29279;50.858;4.392;2022-11-23T05:46:57;18.02;;;3.10;;
43678;SDS011;29279;50.858;4.392;2022-11-23T05:49:23;21.75;;;3.10;;
43678;SDS011;29279;50.858;4.392;2022-11-23T05:51:49;13.05;;;3.08;;
43678;SDS011;29279;50.858;4.392;2022-11-23T05:54:15;27.95;;;4.15;;
43678;SDS011;29279;50.858;4.392;2022-11-23T05:56:40;20.80;;;3.22;;
43678;SDS011;29279;50.858;4.392;2022-11-23T05:59:06;20.67;;;3.08;;
43678;SDS011;29279;50.858;4.392;2022-11-23T06:01:32;24.70;;;4.30;;
43678;SDS011;29279;50.858;4.392;2022-11-23T06:03:58;19.55;;;3.38;;
43678;SDS011;29279;50.858;4.392;2022-11-23T06:06:24;18.58;;;2.78;;
43678;SDS011;29279;50.858;4.392;2022-11-23T06:08:49;22.80;;;3.10;;
43678;SDS011;29279;50.858;4.392;2022-11-23T06:11:15;18.83;;;3.15;;
43678;SDS011;29279;50.858;4.392;2022-11-23T06:13:41;25.30;;;3.95;;
43678;SDS011;29279;50.858;4.392;2022-11-23T06:16:07;27.38;;;3.90;;
43678;SDS011;29279;50.858;4.392;2022-11-23T06:18:32;25.33;;;3.80;;
43678;SDS011;29279;50.858;4.392;2022-11-23T06:20:59;28.05;;;3.08;;
43678;SDS011;29279;50.858;4.392;2022-11-23T06:23:25;26.00;;;3.95;;
43678;SDS011;29279;50.858;4.392;2022-11-23T06:25:51;27.73;;;3.80;;
43678;SDS011;29279;50.858;4.392;2022-11-23T06:28:16;19.80;;;3.22;;
43678;SDS011;29279;50.858;4.392;2022-11-23T06:30:42;27.98;;;4.03;;
43678;SDS011;29279;50.858;4.392;2022-11-23T06:33:08;24.02;;;3.20;;
43678;SDS011;29279;50.858;4.392;2022-11-23T06:35:33;20.77;;;3.20;;
43678;SDS011;29279;50.858;4.392;2022-11-23T06:37:59;20.67;;;4.03;;
43678;SDS011;29279;50.858;4.392;2022-11-23T06:40:25;27.25;;;3.97;;
43678;SDS011;29279;50.858;4.392;2022-11-23T06:42:56;20.48;;;3.33;;
43678;SDS011;29279;50.858;4.392;2022-11-23T06:45:22;20.65;;;3.42;;
43678;SDS011;29279;50.858;4.392;2022-11-23T06:47:48;16.05;;;2.50;;
43678;SDS011;29279;50.858;4.392;2022-11-23T06:50:14;28.52;;;3.38;;
43678;SDS011;29279;50.858;4.392;2022-11-23T06:52:40;23.98;;;3.58;;
43678;SDS011;29279;50.858;4.392;2022-11-23T06:55:07;26.10;;;4.55;;
43678;SDS011;29279;50.858;4.392;2022-11-23T06:57:32;26.05;;;3.00;;
43678;SDS011;29279;50.858;4.392;2022-11-23T06:59:58;19.42;;;3.63;;
43678;SDS011;29279;50.858;4.392;2022-11-23T07:02:24;17.35;;;3.63;;
43678;SDS011;29279;50.858;4.392;2022-11-23T07:04:50;25.45;;;4.68;;
43678;SDS011;29279;50.858;4.392;2022-11-23T07:07:16;22.83;;;4.60;;
43678;SDS011;29279;50.858;4.392;2022-11-23T07:09:42;26.88;;;5.47;;
43678;SDS011;29279;50.858;4.392;2022-11-23T07:12:08;30.85;;;5.05;;
43678;SDS011;29279;50.858;4.392;2022-11-23T07:14:33;19.38;;;4.13;;
43678;SDS011;29279;50.858;4.392;2022-11-23T07:16:59;30.38;;;4.10;;
43678;SDS011;29279;50.858;4.392;2022-11-23T07:19:25;27.80;;;4.38;;
43678;SDS011;29279;50.858;4.392;2022-11-23T07:21:50;24.42;;;4.05;;
43678;SDS011;29279;50.858;4.392;2022-11-23T07:24:16;18.17;;;3.25;;
43678;SDS011;29279;50.858;4.392;2022-11-23T07:26:42;25.85;;;3.95;;
43678;SDS011;29279;50.858;4.392;2022-11-23T07:29:07;26.60;;;4.95;;
43678;SDS011;29279;50.858;4.392;2022-11-23T07:31:33;21.67;;;3.45;;
43678;SDS011;29279;50.858;4.392;2022-11-23T07:33:59;25.30;;;3.38;;
43678;SDS011;29279;50.858;4.392;2022-11-23T07:36:25;34.42;;;4.97;;
43678;SDS011;29279;50.858;4.392;2022-11-23T07:38:50;23.00;;;4.78;;
43678;SDS011;29279;50.858;4.392;2022-11-23T07:41:16;21.20;;;3.45;;
43678;SDS011;29279;50.858;4.392;2022-11-23T07:43:42;32.03;;;4.03;;
43678;SDS011;29279;50.858;4.392;2022-11-23T07:46:08;21.70;;;3.83;;
43678;SDS011;29279;50.858;4.392;2022-11-23T07:48:33;22.02;;;4.18;;
43678;SDS011;29279;50.858;4.392;2022-11-23T07:50:59;28.85;;;4.68;;
43678;SDS011;29279;50.858;4.392;2022-11-23T07:53:24;17.48;;;3.20;;
43678;SDS011;29279;50.858;4.392;2022-11-23T07:55:54;23.77;;;3.90;;
43678;SDS011;29279;50.858;4.392;2022-11-23T07:58:21;21.17;;;4.25;;
43678;SDS011;29279;50.858;4.392;2022-11-23T08:00:47;22.55;;;3.80;;
43678;SDS011;29279;50.858;4.392;2022-11-23T08:03:12;28.27;;;3.97;;
43678;SDS011;29279;50.858;4.392;2022-11-23T08:05:38;27.40;;;3.90;;
43678;SDS011;29279;50.858;4.392;2022-11-23T08:08:04;30.75;;;4.75;;
43678;SDS011;29279;50.858;4.392;2022-11-23T08:10:30;24.33;;;3.97;;
43678;SDS011;29279;50.858;4.392;2022-11-23T08:12:57;26.42;;;3.83;;
43678;SDS011;29279;50.858;4.392;2022-11-23T08:15:24;21.23;;;4.10;;
43678;SDS011;29279;50.858;4.392;2022-11-23T08:17:58;23.00;;;4.85;;
43678;SDS011;29279;50.858;4.392;2022-11-23T08:20:25;27.30;;;4.38;;
43678;SDS011;29279;50.858;4.392;2022-11-23T08:22:52;28.70;;;4.00;;
43678;SDS011;29279;50.858;4.392;2022-11-23T08:25:22;20.20;;;4.72;;
43678;SDS011;29279;50.858;4.392;2022-11-23T08:27:53;22.83;;;3.65;;
43678;SDS011;29279;50.858;4.392;2022-11-23T08:30:23;23.35;;;3.55;;
43678;SDS011;29279;50.858;4.392;2022-11-23T08:32:49;26.88;;;3.55;;
43678;SDS011;29279;50.858;4.392;2022-11-23T08:35:14;25.95;;;4.20;;
43678;SDS011;29279;50.858;4.392;2022-11-23T08:37:40;22.15;;;3.97;;
43678;SDS011;29279;50.858;4.392;2022-11-23T08:40:06;25.02;;;4.03;;
43678;SDS011;29279;50.858;4.392;2022-11-23T08:42:32;25.23;;;4.22;;
43678;SDS011;29279;50.858;4.392;2022-11-23T08:44:58;20.35;;;3.55;;
43678;SDS011;29279;50.858;4.392;2022-11-23T08:47:24;18.77;;;3.30;;
43678;SDS011;29279;50.858;4.392;2022-11-23T08:49:51;16.08;;;3.10;;
43678;SDS011;29279;50.858;4.392;2022-11-23T08:52:16;26.27;;;3.83;;
43678;SDS011;29279;50.858;4.392;2022-11-23T08:54:42;16.35;;;3.00;;
43678;SDS011;29279;50.858;4.392;2022-11-23T08:57:07;13.40;;;3.33;;
43678;SDS011;29279;50.858;4.392;2022-11-23T08:59:34;14.68;;;3.00;;
43678;SDS011;29279;50.858;4.392;2022-11-23T09:01:59;25.23;;;3.97;;
43678;SDS011;29279;50.858;4.392;2022-11-23T09:04:25;21.73;;;3.22;;
43678;SDS011;29279;50.858;4.392;2022-11-23T09:06:53;14.77;;;3.30;;
43678;SDS011;29279;50.858;4.392;2022-11-23T09:09:19;16.00;;;3.90;;
43678;SDS011;29279;50.858;4.392;2022-11-23T09:11:44;16.77;;;3.95;;
43678;SDS011;29279;50.858;4.392;2022-11-23T09:14:10;11.65;;;2.40;;
43678;SDS011;29279;50.858;4.392;2022-11-23T09:16:35;11.45;;;3.03;;
43678;SDS011;29279;50.858;4.392;2022-11-23T09:19:01;15.00;;;4.43;;
43678;SDS011;29279;50.858;4.392;2022-11-23T09:21:27;17.52;;;3.42;;
43678;SDS011;29279;50.858;4.392;2022-11-23T09:23:57;17.10;;;3.80;;
43678;SDS011;29279;50.858;4.392;2022-11-23T09:26:25;14.85;;;4.13;;
43678;SDS011;29279;50.858;4.392;2022-11-23T09:28:50;17.20;;;3.80;;
43678;SDS011;29279;50.858;4.392;2022-11-23T09:31:16;14.70;;;3.30;;
43678;SDS011;29279;50.858;4.392;2022-11-23T09:33:42;20.05;;;3.63;;
43678;SDS011;29279;50.858;4.392;2022-11-23T09:36:08;20.90;;;3.67;;
43678;SDS011;29279;50.858;4.392;2022-11-23T09:38:34;18.38;;;3.45;;
43678;SDS011;29279;50.858;4.392;2022-11-23T09:43:39;18.98;;;3.72;;
43678;SDS011;29279;50.858;4.392;2022-11-23T09:49:07;18.20;;;3.22;;
43678;SDS011;29279;50.858;4.392;2022-11-23T09:51:34;14.00;;;3.20;;
43678;SDS011;29279;50.858;4.392;2022-11-23T09:56:55;20.90;;;4.07;;
43678;SDS011;29279;50.858;4.392;2022-11-23T10:01:59;14.77;;;3.60;;
43678;SDS011;29279;50.858;4.392;2022-11-23T10:04:25;16.23;;;3.35;;
43678;SDS011;29279;50.858;4.392;2022-11-23T10:07:02;10.50;;;2.28;;
43678;SDS011;29279;50.858;4.392;2022-11-23T10:23:15;7.43;;;1.88;;
43678;SDS011;29279;50.858;4.392;2022-11-23T10:25:50;9.30;;;2.47;;
43678;SDS011;29279;50.858;4.392;2022-11-23T10:28:18;5.55;;;1.50;;
43678;SDS011;29279;50.858;4.392;2022-11-23T10:30:59;7.53;;;2.10;;
43678;SDS011;29279;50.858;4.392;2022-11-23T10:33:33;15.43;;;2.28;;
43678;SDS011;29279;50.858;4.392;2022-11-23T10:36:09;7.93;;;1.90;;
43678;SDS011;29279;50.858;4.392;2022-11-23T10:38:37;19.10;;;2.38;;
43678;SDS011;29279;50.858;4.392;2022-11-23T10:49:06;19.08;;;2.92;;
43678;SDS011;29279;50.858;4.392;2022-11-23T10:54:51;10.10;;;2.20;;
43678;SDS011;29279;50.858;4.392;2022-11-23T10:59:59;8.03;;;1.67;;
43678;SDS011;29279;50.858;4.392;2022-11-23T11:02:25;10.25;;;2.88;;
43678;SDS011;29279;50.858;4.392;2022-11-23T11:04:55;10.48;;;2.08;;
43678;SDS011;29279;50.858;4.392;2022-11-23T11:07:39;8.63;;;1.58;;
43678;SDS011;29279;50.858;4.392;2022-11-23T11:10:05;17.20;;;2.17;;
43678;SDS011;29279;50.858;4.392;2022-11-23T11:12:50;13.75;;;2.22;;
43678;SDS011;29279;50.858;4.392;2022-11-23T11:15:16;18.55;;;3.13;;
43678;SDS011;29279;50.858;4.392;2022-11-23T11:17:41;8.98;;;2.55;;
43678;SDS011;29279;50.858;4.392;2022-11-23T11:22:52;12.40;;;2.13;;
43678;SDS011;29279;50.858;4.392;2022-11-23T11:27:59;11.20;;;1.90;;
43678;SDS011;29279;50.858;4.392;2022-11-23T11:30:31;12.68;;;2.78;;
43678;SDS011;29279;50.858;4.392;2022-11-23T11:33:12;6.95;;;1.95;;
43678;SDS011;29279;50.858;4.392;2022-11-23T11:35:42;10.60;;;2.60;;
43678;SDS011;29279;50.858;4.392;2022-11-23T11:38:23;14.18;;;2.20;;
43678;SDS011;29279;50.858;4.392;2022-11-23T11:41:07;12.45;;;2.22;;
43678;SDS011;29279;50.858;4.392;2022-11-23T11:46:37;8.57;;;1.52;;
43678;SDS011;29279;50.858;4.392;2022-11-23T11:51:43;12.25;;;1.85;;
43678;SDS011;29279;50.858;4.392;2022-11-23T11:54:21;9.40;;;1.88;;
43678;SDS011;29279;50.858;4.392;2022-11-23T11:57:04;11.95;;;1.92;;
43678;SDS011;29279;50.858;4.392;2022-11-23T11:59:35;7.35;;;1.95;;
43678;SDS011;29279;50.858;4.392;2022-11-23T12:10:17;10.95;;;1.90;;
43678;SDS011;29279;50.858;4.392;2022-11-23T12:12:52;5.15;;;1.58;;
43678;SDS011;29279;50.858;4.392;2022-11-23T12:15:21;5.53;;;1.38;;
43678;SDS011;29279;50.858;4.392;2022-11-23T12:17:56;2.85;;;1.33;;
43678;SDS011;29279;50.858;4.392;2022-11-23T12:20:29;6.97;;;1.30;;
43678;SDS011;29279;50.858;4.392;2022-11-23T12:31:11;11.82;;;1.33;;
43678;SDS011;29279;50.858;4.392;2022-11-23T12:33:54;4.32;;;1.13;;
43678;SDS011;29279;50.858;4.392;2022-11-23T12:39:39;5.35;;;1.17;;
43678;SDS011;29279;50.858;4.392;2022-11-23T12:45:21;9.45;;;1.60;;
43678;SDS011;29279;50.858;4.392;2022-11-23T12:53:44;9.57;;;1.60;;
43678;SDS011;29279;50.858;4.392;2022-11-23T12:58:44;5.38;;;1.60;;
43678;SDS011;29279;50.858;4.392;2022-11-23T13:01:15;9.68;;;2.05;;
43678;SDS011;29279;50.858;4.392;2022-11-23T13:15:06;8.23;;;1.75;;
43678;SDS011;29279;50.858;4.392;2022-11-23T13:23:00;9.77;;;1.13;;
43678;SDS011;29279;50.858;4.392;2022-11-23T13:25:28;10.68;;;1.50;;
43678;SDS011;29279;50.858;4.392;2022-11-23T13:27:55;5.78;;;1.55;;
43678;SDS011;29279;50.858;4.392;2022-11-23T13:30:33;5.03;;;1.30;;
43678;SDS011;29279;50.858;4.392;2022-11-23T13:40:40;8.65;;;1.52;;
43678;SDS011;29279;50.858;4.392;2022-11-23T13:43:14;4.55;;;1.50;;
43678;SDS011;29279;50.858;4.392;2022-11-23T13:48:53;7.25;;;1.73;;
43678;SDS011;29279;50.858;4.392;2022-11-23T13:51:27;4.28;;;1.50;;
43678;SDS011;29279;50.858;4.392;2022-11-23T13:53:56;6.10;;;1.67;;
43678;SDS011;29279;50.858;4.392;2022-11-23T13:56:34;6.35;;;1.75;;
43678;SDS011;29279;50.858;4.392;2022-11-23T14:02:02;6.07;;;1.85;;
43678;SDS011;29279;50.858;4.392;2022-11-23T14:04:51;10.50;;;1.83;;
43678;SDS011;29279;50.858;4.392;2022-11-23T14:07:39;7.30;;;1.52;;
43678;SDS011;29279;50.858;4.392;2022-11-23T14:10:16;5.80;;;1.60;;
43678;SDS011;29279;50.858;4.392;2022-11-23T14:12:53;6.90;;;1.45;;
43678;SDS011;29279;50.858;4.392;2022-11-23T14:15:34;5.88;;;1.52;;
43678;SDS011;29279;50.858;4.392;2022-11-23T14:26:38;7.72;;;1.80;;
43678;SDS011;29279;50.858;4.392;2022-11-23T14:29:19;3.30;;;1.48;;
43678;SDS011;29279;50.858;4.392;2022-11-23T14:35:32;3.97;;;1.90;;
43678;SDS011;29279;50.858;4.392;2022-11-23T14:41:27;19.77;;;1.95;;
43678;SDS011;29279;50.858;4.392;2022-11-23T14:46:26;4.10;;;1.73;;
43678;SDS011;29279;50.858;4.392;2022-11-23T14:49:01;4.32;;;1.45;;
43678;SDS011;29279;50.858;4.392;2022-11-23T14:51:28;5.85;;;1.75;;
43678;SDS011;29279;50.858;4.392;2022-11-23T14:53:56;3.58;;;1.60;;
43678;SDS011;29279;50.858;4.392;2022-11-23T14:56:30;3.58;;;1.67;;
43678;SDS011;29279;50.858;4.392;2022-11-23T14:59:03;6.05;;;1.88;;
43678;SDS011;29279;50.858;4.392;2022-11-23T15:01:50;9.68;;;1.88;;
43678;SDS011;29279;50.858;4.392;2022-11-23T15:04:25;11.60;;;2.00;;
43678;SDS011;29279;50.858;4.392;2022-11-23T15:07:00;3.00;;;1.67;;
43678;SDS011;29279;50.858;4.392;2022-11-23T15:17:52;5.43;;;1.77;;
43678;SDS011;29279;50.858;4.392;2022-11-23T15:20:20;8.18;;;2.17;;
43678;SDS011;29279;50.858;4.392;2022-11-23T15:22:48;8.43;;;2.03;;
43678;SDS011;29279;50.858;4.392;2022-11-23T15:25:15;10.48;;;2.60;;
43678;SDS011;29279;50.858;4.392;2022-11-23T15:27:43;8.20;;;2.50;;
43678;SDS011;29279;50.858;4.392;2022-11-23T15:30:20;6.60;;;2.25;;
43678;SDS011;29279;50.858;4.392;2022-11-23T15:32:58;3.55;;;2.00;;
43678;SDS011;29279;50.858;4.392;2022-11-23T15:35:28;8.02;;;2.50;;
43678;SDS011;29279;50.858;4.392;2022-11-23T15:37:59;9.82;;;1.60;;
43678;SDS011;29279;50.858;4.392;2022-11-23T15:40:27;6.55;;;1.92;;
43678;SDS011;29279;50.858;4.392;2022-11-23T15:42:57;7.32;;;2.22;;
43678;SDS011;29279;50.858;4.392;2022-11-23T15:48:05;7.68;;;2.15;;
43678;SDS011;29279;50.858;4.392;2022-11-23T15:50:56;7.55;;;2.38;;
43678;SDS011;29279;50.858;4.392;2022-11-23T15:53:28;7.63;;;2.53;;
43678;SDS011;29279;50.858;4.392;2022-11-23T15:56:02;12.05;;;2.50;;
43678;SDS011;29279;50.858;4.392;2022-11-23T15:58:29;8.55;;;2.63;;
43678;SDS011;29279;50.858;4.392;2022-11-23T16:01:06;8.43;;;3.05;;
43678;SDS011;29279;50.858;4.392;2022-11-23T16:03:47;10.65;;;2.30;;
43678;SDS011;29279;50.858;4.392;2022-11-23T16:06:17;11.00;;;2.85;;
43678;SDS011;29279;50.858;4.392;2022-11-23T16:08:47;12.63;;;2.50;;
43678;SDS011;29279;50.858;4.392;2022-11-23T16:11:19;5.85;;;2.50;;
43678;SDS011;29279;50.858;4.392;2022-11-23T16:14:09;14.60;;;2.75;;
43678;SDS011;29279;50.858;4.392;2022-11-23T16:16:40;6.35;;;2.30;;
43678;SDS011;29279;50.858;4.392;2022-11-23T16:19:28;8.95;;;2.78;;
43678;SDS011;29279;50.858;4.392;2022-11-23T16:21:57;9.88;;;2.55;;
43678;SDS011;29279;50.858;4.392;2022-11-23T16:24:25;9.52;;;2.75;;
43678;SDS011;29279;50.858;4.392;2022-11-23T16:26:52;11.75;;;3.42;;
43678;SDS011;29279;50.858;4.392;2022-11-23T16:29:19;9.32;;;3.15;;
43678;SDS011;29279;50.858;4.392;2022-11-23T16:31:57;14.95;;;3.80;;
43678;SDS011;29279;50.858;4.392;2022-11-23T16:34:24;18.15;;;3.95;;
43678;SDS011;29279;50.858;4.392;2022-11-23T16:36:51;15.10;;;3.80;;
43678;SDS011;29279;50.858;4.392;2022-11-23T16:39:19;11.20;;;3.80;;
43678;SDS011;29279;50.858;4.392;2022-11-23T16:41:45;14.00;;;4.68;;
43678;SDS011;29279;50.858;4.392;2022-11-23T16:44:11;8.55;;;3.20;;
43678;SDS011;29279;50.858;4.392;2022-11-23T16:46:37;15.13;;;3.95;;
43678;SDS011;29279;50.858;4.392;2022-11-23T16:49:03;19.42;;;4.60;;
43678;SDS011;29279;50.858;4.392;2022-11-23T16:51:29;18.58;;;4.55;;
43678;SDS011;29279;50.858;4.392;2022-11-23T16:53:55;14.80;;;4.07;;
43678;SDS011;29279;50.858;4.392;2022-11-23T16:56:21;15.18;;;4.93;;
43678;SDS011;29279;50.858;4.392;2022-11-23T16:58:52;21.98;;;5.18;;
43678;SDS011;29279;50.858;4.392;2022-11-23T17:01:19;25.38;;;5.65;;
43678;SDS011;29279;50.858;4.392;2022-11-23T17:03:48;20.27;;;6.07;;
43678;SDS011;29279;50.858;4.392;2022-11-23T17:06:14;28.83;;;5.85;;
43678;SDS011;29279;50.858;4.392;2022-11-23T17:08:41;20.15;;;5.15;;
43678;SDS011;29279;50.858;4.392;2022-11-23T17:11:13;20.25;;;5.85;;
43678;SDS011;29279;50.858;4.392;2022-11-23T17:13:41;21.10;;;5.63;;
43678;SDS011;29279;50.858;4.392;2022-11-23T17:16:18;24.52;;;5.00;;
43678;SDS011;29279;50.858;4.392;2022-11-23T17:18:46;23.83;;;6.47;;